Time;durP1;ratioP1;P1;durP2;ratioP2;P2;SDS_P1;SDS_P2;PMS_P1;PMS_P2;Temp;Humidity;BMP_temperature;BMP_pressure;BME280_temperature;BME280_humidity;BME280_pressure;Samples;Min_cycle;Max_cycle;Signal;HPM_P1;HPM_P2
2022/07/03 00:01:44;;;;;;;1.77;1.67;;;;;;;17.12;69.30;101018.16;4957986;28;20010;-67
2022/07/03 00:04:10;;;;;;;1.90;1.70;;;;;;;17.03;69.19;101017.31;4987429;28;20361;-67
2022/07/03 00:06:35;;;;;;;2.50;1.63;;;;;;;16.99;69.27;101013.31;4946539;28;20524;-64
2022/07/03 00:09:02;;;;;;;1.75;1.50;;;;;;;16.92;69.72;101015.00;4965662;28;20263;-67
2022/07/03 00:11:28;;;;;;;2.63;1.75;;;;;;;16.86;70.39;101010.34;4965582;28;20041;-67
2022/07/03 00:13:53;;;;;;;4.88;1.60;;;;;;;16.81;70.94;101019.69;4964754;28;20358;-67
2022/07/03 00:16:19;;;;;;;2.05;1.55;;;;;;;16.68;72.11;101013.22;4959269;28;20842;-67
2022/07/03 00:18:45;;;;;;;4.43;1.50;;;;;;;16.61;72.14;101018.41;5000145;28;20037;-66
2022/07/03 00:21:11;;;;;;;2.72;1.50;;;;;;;16.69;71.66;101015.72;5000738;28;20418;-66
2022/07/03 00:23:44;;;;;;;2.47;1.60;;;;;;;16.57;71.57;101023.25;4985000;28;20045;-67
2022/07/03 00:26:11;;;;;;;4.75;1.48;;;;;;;16.59;71.58;101023.09;4981854;28;20026;-67
2022/07/03 00:28:36;;;;;;;3.95;2.03;;;;;;;16.58;71.37;101030.28;4986941;28;20414;-67
2022/07/03 00:31:02;;;;;;;1.83;1.60;;;;;;;16.72;70.97;101028.72;4973121;28;20740;-67
2022/07/03 00:33:28;;;;;;;2.45;1.60;;;;;;;16.61;71.05;101023.75;4964719;28;20195;-67
2022/07/03 00:35:54;;;;;;;1.77;1.50;;;;;;;16.42;71.79;101025.78;4954074;28;20052;-66
2022/07/03 00:38:21;;;;;;;2.45;1.30;;;;;;;16.45;71.60;101024.59;4948909;28;20029;-67
2022/07/03 00:40:46;;;;;;;5.45;1.80;;;;;;;16.49;70.94;101026.75;4984336;28;20383;-67
2022/07/03 00:43:11;;;;;;;3.40;1.50;;;;;;;16.50;71.28;101030.28;4965248;28;20344;-67
2022/07/03 00:45:37;;;;;;;1.85;1.40;;;;;;;16.41;71.87;101023.28;4971235;28;21090;-66
2022/07/03 00:48:02;;;;;;;4.13;1.55;;;;;;;16.30;72.27;101027.09;4967434;28;20037;-67
2022/07/03 00:50:34;;;;;;;3.65;1.60;;;;;;;16.20;72.79;101029.13;4945334;28;20143;-66
2022/07/03 00:53:00;;;;;;;3.40;1.45;;;;;;;16.14;72.90;101023.47;4964062;28;20030;-66
2022/07/03 00:55:26;;;;;;;3.03;1.50;;;;;;;16.20;72.85;101026.44;4945851;28;20111;-66
2022/07/03 00:57:51;;;;;;;2.00;1.40;;;;;;;16.16;72.77;101020.63;4952638;28;20033;-66
2022/07/03 01:00:17;;;;;;;7.53;1.33;;;;;;;15.89;73.43;101021.75;4929369;28;20044;-68
2022/07/03 01:02:49;;;;;;;3.70;1.55;;;;;;;15.92;73.31;101032.09;4934148;28;20477;-67
2022/07/03 01:05:26;;;;;;;3.97;1.33;;;;;;;16.03;72.30;101022.94;4944629;28;20955;-67
2022/07/03 01:08:16;;;;;;;2.53;1.52;;;;;;;16.00;71.86;101016.09;4960840;28;20419;-67
2022/07/03 01:10:58;;;;;;;1.70;1.60;;;;;;;15.90;73.02;101010.91;4972507;28;20013;-66
2022/07/03 01:13:23;;;;;;;1.63;1.48;;;;;;;15.88;73.07;101022.78;4982625;28;20906;-67
2022/07/03 01:15:59;;;;;;;1.50;1.50;;;;;;;15.93;72.63;101009.75;4988619;28;20017;-66
2022/07/03 01:18:51;;;;;;;1.98;1.48;;;;;;;15.87;72.71;101013.91;4982889;28;20018;-67
2022/07/03 01:21:23;;;;;;;3.15;1.63;;;;;;;15.71;73.68;101012.03;4985562;28;20246;-68
2022/07/03 01:24:03;;;;;;;3.00;1.63;;;;;;;15.55;74.54;101007.50;4984296;28;20041;-67
2022/07/03 01:26:30;;;;;;;2.75;1.70;;;;;;;15.53;74.90;101006.81;4982417;28;20431;-67
2022/07/03 01:28:58;;;;;;;3.03;1.67;;;;;;;15.56;75.15;100998.50;4948623;28;20208;-67
2022/07/03 01:31:24;;;;;;;5.45;2.03;;;;;;;15.57;75.61;101004.69;4949416;28;20116;-66
2022/07/03 01:33:50;;;;;;;2.30;1.90;;;;;;;15.45;75.63;100998.78;4944077;28;20197;-67
2022/07/03 01:36:15;;;;;;;1.75;1.55;;;;;;;15.38;76.15;101000.44;4951077;28;20198;-66
2022/07/03 01:38:41;;;;;;;9.82;1.80;;;;;;;15.37;76.31;101004.09;4966511;28;20025;-66
2022/07/03 01:41:10;;;;;;;3.33;1.90;;;;;;;15.38;76.74;101005.78;4967471;28;20512;-66
2022/07/03 01:43:48;;;;;;;2.58;1.70;;;;;;;15.33;76.96;101003.59;4950378;28;20399;-67
2022/07/03 01:46:16;;;;;;;1.50;1.40;;;;;;;15.24;77.61;101005.41;4975930;28;20098;-67
2022/07/03 01:48:42;;;;;;;1.65;1.55;;;;;;;15.24;77.79;100991.22;5003232;28;20249;-67
2022/07/03 01:51:07;;;;;;;1.83;1.70;;;;;;;15.23;78.03;100998.41;4990112;28;20502;-66
2022/07/03 01:53:33;;;;;;;3.70;1.80;;;;;;;15.18;78.46;100987.38;4975089;28;20321;-67
2022/07/03 01:55:59;;;;;;;1.60;1.60;;;;;;;15.16;78.80;100989.38;4968065;28;20631;-66
2022/07/03 01:58:24;;;;;;;4.70;1.80;;;;;;;15.08;79.06;100978.69;4968628;28;20020;-64
2022/07/03 02:01:07;;;;;;;2.13;1.50;;;;;;;15.21;78.77;100983.56;4960775;28;20002;-66
2022/07/03 02:03:34;;;;;;;1.75;1.65;;;;;;;15.21;78.74;100979.06;4963656;28;20021;-66
2022/07/03 02:06:06;;;;;;;3.75;1.50;;;;;;;15.29;78.59;100980.94;4949728;28;21229;-67
2022/07/03 02:08:54;;;;;;;2.97;1.52;;;;;;;15.43;77.34;100988.28;4931412;28;20023;-67
2022/07/03 02:11:21;;;;;;;2.50;1.42;;;;;;;15.49;77.46;100980.66;4927364;28;20092;-67
2022/07/03 02:13:52;;;;;;;1.90;1.60;;;;;;;15.43;77.63;100982.97;4969090;28;20392;-67
2022/07/03 02:16:23;;;;;;;2.38;1.33;;;;;;;15.33;78.13;100981.41;4998105;28;20060;-66
2022/07/03 02:19:09;;;;;;;1.50;1.40;;;;;;;15.31;78.62;100980.75;4968785;28;20056;-66
2022/07/03 02:21:34;;;;;;;1.42;1.40;;;;;;;15.41;78.55;100984.13;4964630;28;20024;-66
2022/07/03 02:24:06;;;;;;;1.60;1.50;;;;;;;15.46;78.03;100987.13;4969575;28;20037;-67
2022/07/03 02:26:38;;;;;;;1.58;1.52;;;;;;;15.62;77.38;100994.34;4982311;28;20786;-67
2022/07/03 02:29:04;;;;;;;2.85;1.70;;;;;;;15.48;77.97;100997.66;4949806;28;20017;-67
2022/07/03 02:31:34;;;;;;;2.90;1.40;;;;;;;15.46;77.93;100995.13;4988111;28;20017;-67
2022/07/03 02:34:00;;;;;;;1.52;1.42;;;;;;;15.42;78.25;100994.63;4950993;28;20010;-66
2022/07/03 02:36:29;;;;;;;1.50;1.40;;;;;;;15.39;78.69;100996.78;4949876;28;20202;-66
2022/07/03 02:38:56;;;;;;;2.28;1.50;;;;;;;15.26;79.22;100989.25;4965359;28;20082;-67
2022/07/03 02:41:24;;;;;;;2.47;1.50;;;;;;;15.32;79.18;100991.25;4967099;28;20624;-67
2022/07/03 02:44:02;;;;;;;2.33;1.50;;;;;;;15.19;79.65;100991.72;4974612;28;20930;-66
2022/07/03 02:47:03;;;;;;;1.65;1.55;;;;;;;15.25;79.68;100993.72;4957745;28;20026;-66
2022/07/03 02:49:31;;;;;;;1.80;1.70;;;;;;;15.27;79.30;100998.91;4980897;28;20166;-67
2022/07/03 02:52:15;;;;;;;1.50;1.40;;;;;;;15.25;79.48;100991.06;4984343;28;20416;-67
2022/07/03 02:54:48;;;;;;;2.50;1.58;;;;;;;15.17;79.73;101001.69;4981640;28;20195;-66
2022/07/03 02:57:16;;;;;;;2.47;1.50;;;;;;;15.17;79.88;100996.38;4968779;28;21160;-66
2022/07/03 03:00:00;;;;;;;1.75;1.50;;;;;;;15.18;79.77;101010.53;4960435;28;20130;-67
2022/07/03 03:02:32;;;;;;;1.55;1.50;;;;;;;15.17;79.67;101001.69;4940837;28;20022;-67
2022/07/03 03:04:59;;;;;;;2.67;1.50;;;;;;;15.11;79.89;101000.50;4949133;28;20404;-67
2022/07/03 03:07:29;;;;;;;1.50;1.40;;;;;;;15.07;80.25;101003.66;4965660;28;20014;-66
2022/07/03 03:09:54;;;;;;;1.92;1.70;;;;;;;15.02;79.92;100998.00;4963763;28;20018;-65
2022/07/03 03:12:26;;;;;;;1.50;1.40;;;;;;;14.99;80.29;100996.47;4947644;28;20509;-67
2022/07/03 03:14:56;;;;;;;1.85;1.70;;;;;;;14.87;80.73;100997.75;4942178;28;20125;-65
2022/07/03 03:17:24;;;;;;;1.50;1.50;;;;;;;14.82;80.88;100990.25;4967526;28;20028;-67
2022/07/03 03:19:56;;;;;;;1.95;1.20;;;;;;;14.83;80.75;100991.88;4965841;28;20036;-66
2022/07/03 03:22:30;;;;;;;2.65;1.70;;;;;;;14.88;80.74;101002.09;4965772;28;20195;-66
2022/07/03 03:24:56;;;;;;;1.60;1.50;;;;;;;14.91;80.17;101001.75;4981839;28;20473;-67
2022/07/03 03:27:21;;;;;;;1.70;1.60;;;;;;;14.91;80.25;101007.09;4948634;28;20317;-64
2022/07/03 03:29:47;;;;;;;1.65;1.55;;;;;;;14.84;80.70;101009.53;4945792;28;20105;-67
2022/07/03 03:32:12;;;;;;;2.55;1.50;;;;;;;14.91;80.49;101015.09;4957557;28;20003;-67
2022/07/03 03:34:38;;;;;;;8.98;1.55;;;;;;;14.89;80.46;101009.91;4963681;28;20033;-67
2022/07/03 03:37:04;;;;;;;1.70;1.60;;;;;;;14.96;80.51;101018.13;4951913;28;20420;-66
2022/07/03 03:39:29;;;;;;;1.80;1.70;;;;;;;14.89;80.52;101009.91;4963935;28;20348;-67
2022/07/03 03:41:55;;;;;;;1.92;1.83;;;;;;;14.97;80.47;101017.09;4982280;28;20007;-67
2022/07/03 03:44:20;;;;;;;1.67;1.48;;;;;;;14.99;80.85;101016.94;4947039;28;20014;-66
2022/07/03 03:46:45;;;;;;;1.77;1.55;;;;;;;14.96;81.01;101010.13;4983977;28;20403;-66
2022/07/03 03:49:11;;;;;;;6.55;1.63;;;;;;;15.01;80.75;101014.97;4981458;28;20800;-67
2022/07/03 03:51:36;;;;;;;1.52;1.40;;;;;;;14.99;80.31;101016.94;4966758;28;20102;-68
2022/07/03 03:54:04;;;;;;;1.60;1.50;;;;;;;14.93;80.55;101023.75;4966070;28;20083;-67
2022/07/03 03:56:29;;;;;;;1.92;1.80;;;;;;;14.98;80.54;101016.13;4948015;28;20206;-67
2022/07/03 03:58:55;;;;;;;2.80;1.70;;;;;;;14.96;80.28;101023.44;4987620;28;20922;-67
2022/07/03 04:01:20;;;;;;;1.92;1.52;;;;;;;14.95;80.49;101021.78;4926092;28;20020;-67
2022/07/03 04:03:45;;;;;;;4.45;1.75;;;;;;;14.95;80.46;101021.78;4946679;28;20015;-67
2022/07/03 04:06:11;;;;;;;2.28;1.90;;;;;;;14.97;80.38;101035.75;4942129;28;20045;-66
2022/07/03 04:08:36;;;;;;;1.77;1.67;;;;;;;15.01;80.58;101036.28;4948177;28;20924;-67
2022/07/03 04:11:02;;;;;;;3.28;1.80;;;;;;;15.04;80.34;101025.31;4942277;28;20515;-68
2022/07/03 04:13:27;;;;;;;3.40;1.92;;;;;;;15.12;80.62;101028.00;4970375;28;20331;-67
2022/07/03 04:15:53;;;;;;;1.83;1.70;;;;;;;15.09;80.85;101033.66;4946439;28;20056;-65
2022/07/03 04:18:18;;;;;;;2.88;1.70;;;;;;;15.19;80.77;101029.03;4965119;28;20009;-66
2022/07/03 04:20:44;;;;;;;1.75;1.63;;;;;;;15.27;80.77;101025.56;4948398;28;20002;-66
2022/07/03 04:23:09;;;;;;;1.92;1.60;;;;;;;15.33;80.78;101030.28;4948752;28;20042;-66
2022/07/03 04:25:35;;;;;;;2.72;1.70;;;;;;;15.36;80.96;101040.59;4949761;28;20129;-66
2022/07/03 04:28:00;;;;;;;2.80;1.60;;;;;;;15.44;80.40;101037.97;4999494;28;20028;-67
2022/07/03 04:30:26;;;;;;;1.60;1.50;;;;;;;15.49;80.09;101039.31;4955489;28;20002;-67
2022/07/03 04:32:51;;;;;;;2.47;1.63;;;;;;;15.55;80.32;101046.66;4940249;28;20014;-67
2022/07/03 04:35:17;;;;;;;1.60;1.50;;;;;;;15.62;80.12;101055.69;4948271;28;20737;-67
2022/07/03 04:37:42;;;;;;;1.67;1.60;;;;;;;15.68;79.74;101051.53;4965403;28;20030;-67
2022/07/03 04:40:08;;;;;;;2.67;1.58;;;;;;;15.71;79.47;101048.53;4981143;28;20857;-67
2022/07/03 04:42:34;;;;;;;1.77;1.67;;;;;;;15.77;79.12;101056.72;4963110;28;20014;-65
2022/07/03 04:44:59;;;;;;;1.67;1.67;;;;;;;15.86;78.34;101057.59;4965127;28;20010;-67
2022/07/03 04:47:24;;;;;;;2.28;1.88;;;;;;;15.88;77.82;101058.28;4984149;28;20049;-64
2022/07/03 04:49:50;;;;;;;2.40;1.60;;;;;;;15.92;77.70;101053.44;5003128;28;20022;-68
2022/07/03 04:52:17;;;;;;;1.70;1.60;;;;;;;16.00;77.44;101058.81;4964532;28;20018;-65
2022/07/03 04:54:42;;;;;;;1.85;1.60;;;;;;;16.10;76.79;101058.66;4961888;28;20342;-67
2022/07/03 04:57:08;;;;;;;1.55;1.50;;;;;;;16.18;76.40;101049.81;4967173;28;20864;-68
2022/07/03 04:59:33;;;;;;;1.73;1.63;;;;;;;16.13;75.79;101047.63;4972624;28;20033;-66
2022/07/03 05:01:59;;;;;;;2.17;1.60;;;;;;;16.07;75.82;101046.47;4947796;28;20368;-67
2022/07/03 05:04:24;;;;;;;1.75;1.48;;;;;;;16.14;75.59;101039.50;4989447;28;20057;-64
2022/07/03 05:06:49;;;;;;;1.83;1.60;;;;;;;16.17;75.25;101037.47;4981774;28;20908;-67
2022/07/03 05:09:15;;;;;;;2.28;1.80;;;;;;;16.27;74.77;101054.16;4947131;28;20029;-64
2022/07/03 05:11:41;;;;;;;1.90;1.63;;;;;;;16.38;74.50;101053.81;4982548;28;20269;-67
2022/07/03 05:14:07;;;;;;;3.33;1.50;;;;;;;16.47;73.54;101071.53;4949275;28;20030;-67
2022/07/03 05:16:32;;;;;;;2.65;1.77;;;;;;;16.56;72.98;101082.22;4958138;28;20025;-67
2022/07/03 05:18:58;;;;;;;1.70;1.60;;;;;;;16.63;72.83;101070.66;4964722;28;20876;-66
2022/07/03 05:21:23;;;;;;;2.30;1.90;;;;;;;16.72;73.13;101068.81;4959994;28;20009;-67
2022/07/03 05:23:48;;;;;;;1.45;1.40;;;;;;;16.68;73.30;101074.69;4981810;28;20018;-66
2022/07/03 05:26:14;;;;;;;2.10;1.98;;;;;;;16.81;73.16;101078.50;5000020;28;20037;-66
2022/07/03 05:28:39;;;;;;;2.10;1.77;;;;;;;16.96;72.63;101080.50;4984716;28;21223;-66
2022/07/03 05:31:05;;;;;;;2.80;1.70;;;;;;;16.97;72.61;101071.47;4945615;28;20092;-66
2022/07/03 05:33:30;;;;;;;1.70;1.58;;;;;;;16.92;72.71;101082.69;4980841;28;20339;-66
2022/07/03 05:35:56;;;;;;;1.60;1.50;;;;;;;17.01;72.49;101085.38;4963798;28;20146;-66
2022/07/03 05:41:06;;;;;;;;;;;;;;;17.13;72.55;101076.78;4954570;28;20135;-66
2022/07/03 05:43:31;;;;;;;1.80;1.70;;;;;;;17.27;72.15;101082.41;4968567;28;20378;-67
2022/07/03 05:45:56;;;;;;;2.85;1.70;;;;;;;17.31;72.08;101089.91;4975003;28;20562;-67
2022/07/03 05:48:22;;;;;;;2.20;1.80;;;;;;;17.34;72.06;101088.75;4987413;28;20855;-66
2022/07/03 05:50:47;;;;;;;3.10;2.22;;;;;;;17.49;70.80;101087.00;4987077;28;20036;-66
2022/07/03 05:53:13;;;;;;;2.67;2.00;;;;;;;17.59;70.30;101097.50;4979331;28;20379;-67
2022/07/03 05:55:38;;;;;;;2.88;1.92;;;;;;;17.71;70.27;101089.94;4980903;28;20175;-66
2022/07/03 05:58:03;;;;;;;2.35;2.20;;;;;;;17.67;70.48;101088.63;4968338;28;20341;-68
2022/07/03 06:00:29;;;;;;;2.78;2.08;;;;;;;17.68;70.32;101095.63;4965103;28;20061;-66
2022/07/03 06:02:54;;;;;;;3.47;2.28;;;;;;;17.79;69.55;101086.38;4986079;28;20720;-66
2022/07/03 06:05:20;;;;;;;4.10;2.10;;;;;;;17.88;69.58;101085.31;4983333;28;20024;-64
2022/07/03 06:07:45;;;;;;;3.05;2.30;;;;;;;17.91;69.22;101100.22;4985552;28;20174;-67
2022/07/03 06:10:10;;;;;;;3.47;2.25;;;;;;;18.02;69.04;101097.13;4966909;28;20022;-65
2022/07/03 06:12:36;;;;;;;5.88;2.60;;;;;;;18.05;68.28;101091.44;4995321;28;20351;-67
2022/07/03 06:15:01;;;;;;;5.45;2.38;;;;;;;18.19;68.11;101098.72;4966732;28;20113;-66
2022/07/03 06:17:27;;;;;;;5.03;2.50;;;;;;;18.22;67.19;101092.16;4988137;28;20900;-67
2022/07/03 06:19:52;;;;;;;5.55;2.92;;;;;;;18.33;66.04;101098.94;4986696;28;20094;-64
2022/07/03 06:22:17;;;;;;;3.22;2.92;;;;;;;18.36;66.26;101094.06;4989471;28;20041;-67
2022/07/03 06:24:43;;;;;;;4.78;2.63;;;;;;;18.45;66.21;101092.13;4989645;28;20037;-65
2022/07/03 06:27:08;;;;;;;4.90;2.72;;;;;;;18.57;65.36;101091.69;4990849;28;20435;-67
2022/07/03 06:29:34;;;;;;;3.90;2.40;;;;;;;18.62;65.71;101103.53;5001000;28;21012;-66
2022/07/03 06:31:59;;;;;;;2.83;2.60;;;;;;;18.67;65.76;101105.69;4966250;28;20293;-67
2022/07/03 06:34:25;;;;;;;2.95;2.20;;;;;;;18.69;66.06;101101.81;4953802;28;20029;-66
2022/07/03 06:36:50;;;;;;;3.90;2.63;;;;;;;18.78;65.37;101107.09;4986220;28;19990;-66
2022/07/03 06:39:16;;;;;;;2.85;2.60;;;;;;;18.79;65.19;101106.91;4955773;28;20801;-67
2022/07/03 06:41:41;;;;;;;3.83;2.70;;;;;;;18.87;65.44;101106.03;4949109;28;20010;-67
2022/07/03 06:44:07;;;;;;;5.55;2.47;;;;;;;18.93;65.56;101104.47;4968657;28;20006;-69
2022/07/03 06:46:32;;;;;;;3.08;2.47;;;;;;;19.12;63.10;101106.63;4973767;28;20118;-68
2022/07/03 06:48:58;;;;;;;3.00;2.70;;;;;;;19.09;62.93;101112.34;5007511;28;20318;-68
2022/07/03 06:51:23;;;;;;;2.97;2.42;;;;;;;19.21;61.95;101107.38;4986256;28;20014;-67
2022/07/03 06:53:48;;;;;;;8.13;2.80;;;;;;;19.25;62.12;101107.81;4990370;28;20424;-68
2022/07/03 06:56:14;;;;;;;3.63;2.40;;;;;;;19.30;61.24;101110.78;4988821;28;20386;-68
2022/07/03 06:58:39;;;;;;;4.38;2.63;;;;;;;19.39;61.72;101104.31;4970978;28;20505;-69
2022/07/03 07:01:05;;;;;;;4.38;2.97;;;;;;;19.41;61.72;101112.19;4969566;28;20073;-65
2022/07/03 07:03:30;;;;;;;6.63;3.00;;;;;;;19.38;61.36;101108.81;4970016;28;20029;-66
2022/07/03 07:05:56;;;;;;;4.00;2.58;;;;;;;19.44;61.68;101120.66;4969284;28;20073;-65
2022/07/03 07:08:21;;;;;;;7.13;2.63;;;;;;;19.51;61.07;101113.53;4982907;28;20014;-67
2022/07/03 07:10:46;;;;;;;5.80;2.38;;;;;;;19.62;61.06;101108.72;4951829;28;20196;-67
2022/07/03 07:13:12;;;;;;;7.45;3.20;;;;;;;19.72;60.99;101114.63;4966294;28;20399;-68
2022/07/03 07:15:38;;;;;;;4.00;2.80;;;;;;;19.83;59.38;101114.16;4960260;28;20338;-69
2022/07/03 07:18:03;;;;;;;6.85;2.90;;;;;;;19.89;59.44;101113.41;4950555;28;20224;-68
2022/07/03 07:20:29;;;;;;;4.70;2.50;;;;;;;19.97;58.80;101111.66;4952871;28;20398;-68
2022/07/03 07:22:54;;;;;;;5.88;3.08;;;;;;;20.05;59.32;101111.50;4961123;28;20032;-69
2022/07/03 07:25:20;;;;;;;6.78;2.88;;;;;;;20.17;59.17;101111.84;4929799;28;20198;-68
2022/07/03 07:27:45;;;;;;;6.25;3.30;;;;;;;20.16;58.08;101100.25;4928723;28;20077;-68
2022/07/03 07:30:11;;;;;;;3.05;2.85;;;;;;;20.27;57.91;101106.97;4938596;28;20893;-68
2022/07/03 07:32:36;;;;;;;2.80;2.60;;;;;;;20.31;56.86;101104.75;4954910;28;20026;-67
2022/07/03 07:35:02;;;;;;;3.88;2.60;;;;;;;20.26;57.36;101099.94;4970508;28;20481;-68
2022/07/03 07:37:28;;;;;;;4.75;2.50;;;;;;;20.39;56.57;101099.22;4957331;28;20006;-67
2022/07/03 07:39:53;;;;;;;5.43;2.60;;;;;;;20.55;56.59;101104.34;4966157;28;20015;-68
2022/07/03 07:42:19;;;;;;;4.07;2.53;;;;;;;20.51;56.42;101107.63;4930658;28;20053;-67
2022/07/03 07:44:45;;;;;;;3.35;2.80;;;;;;;20.63;56.77;101105.22;4956652;28;20029;-69
2022/07/03 07:47:10;;;;;;;8.35;2.70;;;;;;;20.72;55.80;101104.91;4934635;28;20913;-67
2022/07/03 07:49:35;;;;;;;3.10;2.40;;;;;;;20.78;55.70;101097.91;4945912;28;20022;-68
2022/07/03 07:52:01;;;;;;;1.92;1.83;;;;;;;20.91;56.02;101092.66;4931397;28;20960;-67
2022/07/03 07:54:26;;;;;;;6.20;2.35;;;;;;;21.01;56.14;101094.13;4953189;28;20443;-71
2022/07/03 07:56:52;;;;;;;4.55;2.42;;;;;;;21.13;55.68;101095.25;4983155;28;20299;-71
2022/07/03 07:59:17;;;;;;;3.08;2.40;;;;;;;21.09;53.83;101099.38;4989785;28;20026;-72
2022/07/03 08:07:10;;;;;;;3.38;3.08;;;;;;;21.23;53.99;101106.47;4976358;28;20788;-71
2022/07/03 08:09:36;;;;;;;3.60;2.45;;;;;;;21.34;54.20;101104.28;4979834;28;20010;-72
2022/07/03 08:12:01;;;;;;;4.45;2.50;;;;;;;21.39;53.81;101102.66;4978402;28;20305;-71
2022/07/03 08:14:27;;;;;;;3.30;2.20;;;;;;;21.46;55.27;101108.03;4968443;28;21099;-71
2022/07/03 08:16:52;;;;;;;3.28;2.47;;;;;;;21.53;54.47;101105.41;4968580;28;20084;-70
2022/07/03 08:19:18;;;;;;;3.95;2.38;;;;;;;21.50;53.83;101106.63;4961866;28;20333;-69
2022/07/03 08:21:43;;;;;;;5.40;2.53;;;;;;;21.62;54.82;101112.31;4941103;28;20146;-69
2022/07/03 08:24:10;;;;;;;6.60;2.33;;;;;;;21.76;53.74;101105.94;4957975;28;20196;-70
2022/07/03 08:26:36;;;;;;;2.75;2.42;;;;;;;21.83;54.34;101097.03;4989887;28;20034;-70
2022/07/03 08:29:01;;;;;;;5.25;2.40;;;;;;;21.82;53.86;101101.59;4979067;28;20052;-70
2022/07/03 08:31:27;;;;;;;4.22;2.10;;;;;;;21.85;53.50;101105.75;4993393;28;20173;-70
2022/07/03 08:33:52;;;;;;;3.08;2.17;;;;;;;21.79;52.49;101115.47;4975825;28;20091;-70
2022/07/03 08:36:18;;;;;;;2.00;1.80;;;;;;;21.94;53.03;101113.44;4988031;28;20021;-70
2022/07/03 08:38:43;;;;;;;2.47;1.80;;;;;;;22.17;53.02;101120.34;4975554;28;20022;-69
2022/07/03 08:41:09;;;;;;;2.10;2.00;;;;;;;22.19;52.18;101114.75;4990340;28;20737;-71
2022/07/03 08:43:34;;;;;;;2.55;1.77;;;;;;;22.39;52.87;101110.25;4991948;28;20022;-70
2022/07/03 08:46:00;;;;;;;2.13;1.60;;;;;;;22.56;50.46;101116.06;4987684;28;20250;-71
2022/07/03 08:48:26;;;;;;;4.18;1.90;;;;;;;22.61;50.18;101110.03;4976222;28;20002;-71
2022/07/03 08:50:52;;;;;;;5.40;1.85;;;;;;;22.72;52.38;101105.91;4975731;28;20703;-71
2022/07/03 08:53:18;;;;;;;2.47;1.80;;;;;;;22.79;51.07;101109.41;4954925;28;20281;-71
2022/07/03 08:55:43;;;;;;;3.08;2.70;;;;;;;22.56;50.50;101113.38;4973670;28;19998;-70
2022/07/03 08:58:10;;;;;;;4.07;2.17;;;;;;;22.41;51.21;101112.72;4986451;28;20029;-71
2022/07/03 09:00:35;;;;;;;5.70;2.10;;;;;;;22.78;50.63;101113.13;4982353;28;20010;-69
2022/07/03 09:03:04;;;;;;;2.15;2.00;;;;;;;22.77;49.90;101108.78;4969761;28;20959;-70
2022/07/03 09:05:29;;;;;;;4.70;2.25;;;;;;;22.53;49.39;101110.25;4955569;28;20388;-70
2022/07/03 09:07:55;;;;;;;3.15;1.73;;;;;;;22.92;51.07;101111.25;4955702;28;20332;-68
2022/07/03 09:10:20;;;;;;;1.70;1.60;;;;;;;23.17;49.60;101106.06;4951769;28;20018;-70
2022/07/03 09:12:47;;;;;;;3.00;1.80;;;;;;;23.35;48.86;101123.44;4973056;28;20437;-69
2022/07/03 09:15:12;;;;;;;3.13;2.05;;;;;;;23.23;49.22;101118.69;4971008;28;20007;-69
2022/07/03 09:17:38;;;;;;;1.85;1.70;;;;;;;23.39;48.42;101116.56;4965356;28;20871;-70
2022/07/03 09:20:05;;;;;;;2.60;2.00;;;;;;;23.61;47.94;101109.03;4963073;28;20006;-69
2022/07/03 09:22:37;;;;;;;3.35;2.05;;;;;;;23.62;46.81;101110.66;4977518;28;20124;-69
2022/07/03 09:25:06;;;;;;;2.60;1.90;;;;;;;23.58;46.88;101118.38;4969545;28;20033;-69
2022/07/03 09:27:32;;;;;;;2.22;2.08;;;;;;;23.89;48.10;101111.41;4994023;28;20640;-70
2022/07/03 09:30:04;;;;;;;2.20;1.95;;;;;;;24.46;48.59;101113.31;4983039;28;20329;-70
2022/07/03 09:32:42;;;;;;;4.63;1.80;;;;;;;24.54;47.05;101104.91;4976974;28;20120;-70
2022/07/03 09:35:20;;;;;;;5.63;1.90;;;;;;;24.76;47.08;101108.09;4973059;28;20057;-69
2022/07/03 09:38:02;;;;;;;1.65;1.55;;;;;;;24.59;43.78;101107.78;4981957;28;20094;-69
2022/07/03 09:40:50;;;;;;;2.70;1.70;;;;;;;24.68;44.03;101113.78;4981493;28;20022;-70
2022/07/03 09:43:15;;;;;;;2.63;2.00;;;;;;;25.05;45.83;101115.72;4964857;28;20866;-69
2022/07/03 09:45:55;;;;;;;2.28;1.83;;;;;;;25.33;44.77;101110.63;4968833;28;20467;-70
2022/07/03 09:48:41;;;;;;;2.05;1.77;;;;;;;25.81;44.62;101105.47;4963972;28;20018;-69
2022/07/03 09:51:26;;;;;;;3.25;1.52;;;;;;;25.78;42.35;101100.47;4987263;28;20021;-70
2022/07/03 09:54:02;;;;;;;4.13;1.58;;;;;;;26.13;43.64;101105.22;4985467;28;20095;-69
2022/07/03 09:56:29;;;;;;;2.83;1.90;;;;;;;26.19;40.78;101107.84;4961506;28;20021;-69
2022/07/03 09:59:09;;;;;;;2.95;1.60;;;;;;;25.98;41.42;101103.75;4972772;28;20382;-70
2022/07/03 10:01:42;;;;;;;2.75;1.90;;;;;;;26.12;41.96;101092.75;5001031;28;20170;-69
2022/07/03 10:04:11;;;;;;;2.50;1.48;;;;;;;26.30;42.18;101100.81;4971266;28;20602;-71
2022/07/03 10:06:58;;;;;;;2.35;1.67;;;;;;;26.49;41.89;101098.00;4991111;28;20053;-70
2022/07/03 10:09:29;;;;;;;2.63;1.23;;;;;;;26.57;43.17;101089.50;4983831;28;20053;-68
2022/07/03 10:11:56;;;;;;;4.60;1.65;;;;;;;26.64;42.13;101094.81;4987361;28;20399;-70
2022/07/03 10:14:23;;;;;;;2.97;1.52;;;;;;;26.60;40.86;101097.19;4967394;28;20034;-67
2022/07/03 10:16:48;;;;;;;2.53;1.20;;;;;;;26.65;41.75;101097.31;4971537;28;20133;-68
2022/07/03 10:19:15;;;;;;;1.58;1.27;;;;;;;26.90;40.56;101093.53;4972185;28;20809;-68
2022/07/03 10:21:41;;;;;;;1.65;1.50;;;;;;;27.09;40.33;101102.38;5010280;28;20045;-69
2022/07/03 10:24:07;;;;;;;2.65;1.30;;;;;;;27.59;40.97;101092.81;4968564;28;20096;-70
2022/07/03 10:26:32;;;;;;;1.40;1.30;;;;;;;27.50;40.21;101096.97;4968113;28;21011;-71
2022/07/03 10:28:58;;;;;;;1.00;1.00;;;;;;;27.77;41.37;101094.53;4981291;28;20091;-70
2022/07/03 10:31:24;;;;;;;1.30;1.20;;;;;;;27.97;38.79;101101.41;4983941;28;20091;-67
2022/07/03 10:33:50;;;;;;;2.40;1.10;;;;;;;28.08;38.25;101095.13;4961743;28;20017;-70
2022/07/03 10:36:16;;;;;;;2.05;1.30;;;;;;;28.34;38.79;101093.63;4985309;28;20006;-71
2022/07/03 10:38:42;;;;;;;1.90;1.13;;;;;;;28.58;38.93;101101.63;4974164;28;20273;-70
2022/07/03 10:46:57;;;;;;;2.30;1.20;;;;;;;28.69;38.59;101092.56;4980865;28;20457;-71
2022/07/03 10:49:23;;;;;;;1.38;1.27;;;;;;;29.02;38.83;101090.03;4965649;28;20586;-74
2022/07/03 10:52:01;;;;;;;2.95;1.00;;;;;;;29.34;38.14;101097.56;4959020;28;20525;-69
2022/07/03 10:54:27;;;;;;;1.45;1.00;;;;;;;29.17;36.77;101092.13;4966239;28;20502;-71
2022/07/03 10:56:58;;;;;;;1.67;1.20;;;;;;;29.33;36.75;101091.28;4996813;28;20034;-71
2022/07/03 10:59:36;;;;;;;1.77;1.25;;;;;;;29.31;36.87;101084.44;4998040;28;20451;-69
2022/07/03 11:02:23;;;;;;;2.65;1.20;;;;;;;29.25;36.01;101089.00;4974636;28;20726;-73
2022/07/03 11:04:58;;;;;;;2.40;1.35;;;;;;;29.19;35.63;101088.09;4985768;28;20763;-71
2022/07/03 11:07:33;;;;;;;1.70;1.15;;;;;;;29.46;36.65;101088.16;4987926;28;20024;-68
2022/07/03 11:10:12;;;;;;;2.15;2.05;;;;;;;29.80;38.13;101078.97;4999313;28;20010;-73
2022/07/03 11:12:55;;;;;;;3.05;1.40;;;;;;;29.71;36.68;101066.88;5014813;28;20111;-68
2022/07/03 11:15:40;;;;;;;3.38;1.30;;;;;;;29.85;36.10;101067.31;4982854;28;20023;-71
2022/07/03 11:18:12;;;;;;;1.55;1.08;;;;;;;30.25;35.83;101069.56;4984199;28;20083;-72
2022/07/03 11:20:43;;;;;;;3.65;1.30;;;;;;;30.39;34.13;101061.75;4993252;28;20022;-69
2022/07/03 11:23:27;;;;;;;1.73;1.10;;;;;;;30.40;34.00;101068.84;4994001;28;20074;-68
2022/07/03 11:26:12;;;;;;;1.13;1.00;;;;;;;30.38;34.27;101071.03;4978802;28;20041;-73
2022/07/03 11:28:38;;;;;;;2.15;1.13;;;;;;;30.86;34.40;101062.88;4945872;28;20366;-72
2022/07/03 11:31:16;;;;;;;3.17;1.00;;;;;;;30.63;31.98;101059.50;4984426;28;20527;-71
2022/07/03 11:33:48;;;;;;;1.45;0.98;;;;;;;30.65;32.90;101061.94;4973849;28;20014;-72
2022/07/03 11:36:16;;;;;;;3.00;1.80;;;;;;;31.16;33.42;101067.72;4953628;28;20467;-68
2022/07/03 11:38:42;;;;;;;1.85;1.10;;;;;;;31.36;34.06;101066.09;4973103;28;20343;-72
2022/07/03 11:41:08;;;;;;;3.75;1.20;;;;;;;31.42;32.12;101054.13;4933028;28;20566;-72
2022/07/03 11:43:34;;;;;;;1.65;1.25;;;;;;;30.89;32.16;101051.41;4955237;28;20014;-71